Terminal Aerodrome Forecast
Issued by NWS

Home | Current Version | Previous Version | Text Only | Print | Product List | Glossary On
Versions: 1 2 3 4 5 6 7 8 9 10 11 12 13 14 15 16 17 18 19 20 21 22 23
000
FTUS46 KSEW 300520
TAFHQM
TAF
KHQM 300520Z 3006/3106 27005KT P6SM SKC
     FM300900 25005KT 3SM BR OVC005
      TEMPO 3012/3016 3/4SM BR OVC003
     FM301600 25016G24KT 5SM HZ SCT005 OVC015
     FM302100 25016G24KT P6SM SCT020 SCT040
     FM310400 26012KT P6SM BKN010 OVC020=

USA.gov is the U.S. government's official web portal to all federal, state and local government web resources and services.